Time;durP1;ratioP1;P1;durP2;ratioP2;P2;SDS_P1;SDS_P2;PMS_P1;PMS_P2;Temp;Humidity;BMP_temperature;BMP_pressure;BME280_temperature;BME280_humidity;BME280_pressure;Samples;Min_cycle;Max_cycle;Signal;HPM_P1;HPM_P2
2021/07/09 00:02:00;;;;;;;28.35;11.45;;;17.20;92.20;;;;;;4991040;28;20624;-83
2021/07/09 00:04:26;;;;;;;38.13;13.02;;;17.20;92.30;;;;;;4989868;28;20174;-83
2021/07/09 00:06:52;;;;;;;35.35;13.02;;;17.20;92.50;;;;;;4989899;28;20557;-83
2021/07/09 00:09:19;;;;;;;28.92;14.15;;;17.10;92.60;;;;;;4989854;28;20182;-83
2021/07/09 00:11:47;;;;;;;30.10;14.77;;;17.10;92.80;;;;;;4990949;28;20198;-83
2021/07/09 00:14:14;;;;;;;23.45;14.55;;;17.10;92.90;;;;;;4989841;28;20673;-82
2021/07/09 00:16:41;;;;;;;25.85;14.45;;;17.10;93.00;;;;;;4989699;28;20205;-82
2021/07/09 00:19:08;;;;;;;26.27;15.02;;;17.10;93.00;;;;;;4989728;28;20200;-83
2021/07/09 00:21:36;;;;;;;26.52;14.32;;;17.20;93.00;;;;;;4989611;28;20635;-83
2021/07/09 00:24:03;;;;;;;29.98;14.32;;;17.20;93.00;;;;;;4990917;28;20237;-83
2021/07/09 00:26:29;;;;;;;25.17;14.73;;;17.20;93.00;;;;;;4989607;28;20269;-83
2021/07/09 00:28:57;;;;;;;27.42;13.25;;;17.20;93.00;;;;;;4989596;28;20559;-83
2021/07/09 00:31:23;;;;;;;35.67;13.68;;;17.20;93.00;;;;;;4990859;28;20222;-83
2021/07/09 00:33:49;;;;;;;21.40;13.30;;;17.20;92.90;;;;;;4989531;28;20265;-83
2021/07/09 00:36:15;;;;;;;21.00;13.32;;;17.20;92.80;;;;;;4989512;28;20757;-83
2021/07/09 00:38:41;;;;;;;40.30;14.88;;;17.10;92.90;;;;;;4989514;28;20577;-82
2021/07/09 00:41:07;;;;;;;38.10;14.63;;;17.00;93.00;;;;;;4990850;28;20190;-82
2021/07/09 00:43:32;;;;;;;41.50;15.27;;;17.00;93.10;;;;;;4989653;28;20174;-82
2021/07/09 00:45:58;;;;;;;56.00;15.48;;;16.90;93.30;;;;;;4989926;28;20183;-82
2021/07/09 00:48:28;;;;;;;32.55;15.10;;;16.90;93.40;;;;;;4989380;28;20697;-82
2021/07/09 00:51:14;;;;;;;36.45;15.20;;;16.90;93.50;;;;;;4989349;28;20205;-82
2021/07/09 00:53:40;;;;;;;45.55;15.43;;;16.90;93.50;;;;;;4989142;28;20186;-82
2021/07/09 00:56:06;;;;;;;39.67;15.02;;;16.90;93.40;;;;;;4989186;28;20573;-83
2021/07/09 00:58:33;;;;;;;39.90;14.60;;;16.90;93.40;;;;;;4992131;28;20201;-83
2021/07/09 01:00:58;;;;;;;45.72;14.02;;;16.90;93.30;;;;;;4993696;28;20636;-83
2021/07/09 01:03:24;;;;;;;34.50;13.95;;;17.00;93.30;;;;;;4992571;28;20202;-82
2021/07/09 01:05:50;;;;;;;37.33;13.18;;;17.10;93.20;;;;;;4992574;28;20265;-82
2021/07/09 01:08:16;;;;;;;36.35;12.98;;;17.10;93.20;;;;;;4992661;28;20211;-82
2021/07/09 01:10:42;;;;;;;21.67;11.15;;;17.20;93.20;;;;;;4992368;28;20202;-83
2021/07/09 01:13:09;;;;;;;33.05;11.50;;;17.20;93.10;;;;;;4992471;28;20560;-83
2021/07/09 01:15:35;;;;;;;27.70;12.43;;;17.00;92.60;;;;;;4993802;28;20649;-82
2021/07/09 01:18:02;;;;;;;24.42;10.25;;;17.10;92.60;;;;;;4993812;28;20175;-83
2021/07/09 01:20:28;;;;;;;19.77;11.55;;;17.20;92.60;;;;;;4993508;28;20572;-83
2021/07/09 01:22:56;;;;;;;19.77;10.57;;;17.20;92.40;;;;;;4993479;28;20170;-82
2021/07/09 01:25:26;;;;;;;23.77;9.93;;;17.20;92.40;;;;;;4993528;28;20181;-83
2021/07/09 01:28:05;;;;;;;19.20;9.88;;;17.30;92.30;;;;;;4993385;28;20180;-83
2021/07/09 01:30:33;;;;;;;22.58;9.70;;;17.30;92.30;;;;;;4993345;28;20691;-82
2021/07/09 01:32:59;;;;;;;17.58;9.40;;;17.30;92.30;;;;;;4993296;28;20186;-82
2021/07/09 01:35:27;;;;;;;31.90;9.13;;;17.30;92.20;;;;;;4993293;28;20667;-83
2021/07/09 01:38:02;;;;;;;25.88;9.23;;;17.30;92.10;;;;;;4993514;28;20221;-82
2021/07/09 01:40:29;;;;;;;22.42;9.32;;;17.30;92.10;;;;;;5008318;28;20194;-82
2021/07/09 01:42:56;;;;;;;20.45;9.23;;;17.30;92.00;;;;;;5008299;28;20186;-83
2021/07/09 01:45:22;;;;;;;25.05;8.50;;;17.30;92.00;;;;;;4993217;28;20659;-83
2021/07/09 01:47:49;;;;;;;13.32;7.18;;;17.40;92.00;;;;;;4993141;28;20578;-83
2021/07/09 01:50:16;;;;;;;20.20;6.88;;;17.40;91.90;;;;;;4991831;28;20209;-83
2021/07/09 01:52:42;;;;;;;14.77;7.35;;;17.40;91.70;;;;;;4993024;28;20178;-83
2021/07/09 01:55:08;;;;;;;25.60;7.22;;;17.40;91.60;;;;;;4991830;28;20664;-83
2021/07/09 01:57:34;;;;;;;19.50;7.05;;;17.40;91.40;;;;;;4992942;28;20194;-83
2021/07/09 02:00:00;;;;;;;12.43;7.18;;;17.50;91.20;;;;;;4991725;28;20186;-83
2021/07/09 02:02:26;;;;;;;18.75;7.57;;;17.40;90.90;;;;;;4991641;28;20324;-83
2021/07/09 02:04:56;;;;;;;22.33;7.03;;;17.30;90.70;;;;;;4991604;28;20224;-83
2021/07/09 02:07:24;;;;;;;22.60;6.95;;;17.30;90.70;;;;;;4993101;28;20238;-83
2021/07/09 02:09:52;;;;;;;31.08;8.27;;;17.20;90.90;;;;;;4992046;28;20170;-83
2021/07/09 02:12:20;;;;;;;28.63;7.95;;;17.20;91.00;;;;;;5007817;28;20201;-82
2021/07/09 02:14:47;;;;;;;33.92;9.10;;;17.20;91.10;;;;;;4992723;28;20182;-83
2021/07/09 02:17:15;;;;;;;15.77;6.70;;;17.20;91.10;;;;;;4991412;28;20210;-83
2021/07/09 02:19:42;;;;;;;13.23;6.50;;;17.20;91.00;;;;;;4992634;28;20170;-83
2021/07/09 02:22:10;;;;;;;16.95;6.53;;;17.20;90.90;;;;;;4992520;28;20206;-83
2021/07/09 02:24:38;;;;;;;17.10;5.68;;;17.20;90.90;;;;;;4992614;28;20180;-83
2021/07/09 02:27:05;;;;;;;17.67;6.43;;;17.30;90.70;;;;;;4992577;28;20177;-83
2021/07/09 02:29:32;;;;;;;20.23;6.95;;;17.30;90.60;;;;;;4991289;28;20193;-83
2021/07/09 02:31:59;;;;;;;13.10;5.53;;;17.30;90.50;;;;;;5007507;28;20203;-83
2021/07/09 02:34:26;;;;;;;14.63;6.75;;;17.30;90.40;;;;;;4992463;28;20610;-83
2021/07/09 02:36:52;;;;;;;8.52;5.22;;;17.40;90.20;;;;;;5007434;28;20209;-83
2021/07/09 02:39:17;;;;;;;9.13;5.07;;;17.40;90.10;;;;;;4992314;28;20174;-83
2021/07/09 02:41:43;;;;;;;13.57;5.80;;;17.40;90.00;;;;;;4992271;28;20190;-83
2021/07/09 02:44:09;;;;;;;15.27;6.63;;;17.40;89.90;;;;;;4991026;28;20212;-82
2021/07/09 02:46:34;;;;;;;12.55;6.15;;;17.40;89.70;;;;;;4991074;28;20228;-83
2021/07/09 02:49:00;;;;;;;12.75;6.03;;;17.40;89.80;;;;;;4992187;28;20215;-83
2021/07/09 02:51:26;;;;;;;15.95;6.60;;;17.30;90.00;;;;;;4990934;28;20226;-83
2021/07/09 02:53:52;;;;;;;42.55;7.70;;;17.30;90.10;;;;;;4990890;28;20186;-83
2021/07/09 02:56:17;;;;;;;37.38;8.27;;;17.20;90.40;;;;;;4992027;28;20209;-83
2021/07/09 02:58:43;;;;;;;25.25;7.35;;;17.20;90.40;;;;;;4992032;28;20206;-83
2021/07/09 03:01:08;;;;;;;36.70;8.18;;;17.20;90.50;;;;;;4991937;28;20611;-82
2021/07/09 03:03:34;;;;;;;53.10;9.27;;;17.20;90.50;;;;;;4991937;28;20249;-83
2021/07/09 03:05:59;;;;;;;42.40;7.63;;;17.10;90.60;;;;;;4990688;28;20257;-83
2021/07/09 03:08:25;;;;;;;28.35;8.38;;;16.90;90.80;;;;;;4991986;28;20253;-83
2021/07/09 03:10:50;;;;;;;41.42;9.02;;;16.80;91.30;;;;;;4991761;28;20190;-83
2021/07/09 03:13:16;;;;;;;35.53;8.63;;;16.80;91.60;;;;;;4990555;28;20642;-83
2021/07/09 03:15:42;;;;;;;53.47;8.75;;;16.80;91.50;;;;;;4991681;28;20176;-83
2021/07/09 03:18:07;;;;;;;53.47;9.52;;;16.70;91.80;;;;;;4991706;28;20214;-83
2021/07/09 03:20:34;;;;;;;56.78;10.45;;;16.60;92.00;;;;;;4991743;28;20601;-83
2021/07/09 03:23:00;;;;;;;52.63;10.60;;;16.60;92.20;;;;;;4989324;28;20685;-83
2021/07/09 03:25:25;;;;;;;52.20;11.02;;;16.50;92.40;;;;;;4990490;28;20182;-83
2021/07/09 03:27:51;;;;;;;49.50;10.85;;;16.50;92.50;;;;;;4990442;28;20193;-83
2021/07/09 03:30:17;;;;;;;44.25;9.05;;;16.60;92.60;;;;;;4990349;28;20426;-83
2021/07/09 03:32:43;;;;;;;42.50;10.57;;;16.60;92.50;;;;;;4990317;28;20186;-83
2021/07/09 03:35:09;;;;;;;39.10;10.38;;;16.60;92.30;;;;;;4990341;28;20235;-82
2021/07/09 03:37:35;;;;;;;33.92;9.23;;;16.60;92.30;;;;;;4991411;28;20558;-83
2021/07/09 03:40:02;;;;;;;32.50;9.82;;;16.70;92.30;;;;;;4991308;28;20173;-83
2021/07/09 03:42:27;;;;;;;22.85;7.80;;;16.70;92.10;;;;;;4991449;28;20174;-83
2021/07/09 03:44:53;;;;;;;30.77;8.55;;;16.70;92.10;;;;;;4991381;28;20174;-83
2021/07/09 03:47:18;;;;;;;23.35;7.72;;;16.80;92.00;;;;;;4991381;28;20200;-83
2021/07/09 03:49:44;;;;;;;37.28;7.65;;;16.80;91.90;;;;;;4990078;28;20178;-83
2021/07/09 03:52:10;;;;;;;22.27;6.78;;;16.90;91.80;;;;;;4989966;28;20272;-83
2021/07/09 03:54:36;;;;;;;24.25;6.65;;;16.90;91.60;;;;;;4991256;28;20302;-83
2021/07/09 03:57:03;;;;;;;23.58;6.88;;;16.90;91.40;;;;;;4991133;28;20194;-83
2021/07/09 03:59:28;;;;;;;13.30;6.13;;;16.90;91.40;;;;;;4991143;28;20184;-83
2021/07/09 04:01:54;;;;;;;19.30;5.72;;;16.90;91.20;;;;;;4989736;28;20313;-83
2021/07/09 04:04:19;;;;;;;23.27;6.80;;;16.90;91.00;;;;;;4989895;28;20189;-83
2021/07/09 04:06:45;;;;;;;8.30;5.57;;;17.00;90.90;;;;;;4989841;28;20174;-83
2021/07/09 04:09:11;;;;;;;24.05;6.35;;;17.00;90.50;;;;;;4991094;28;20731;-83
2021/07/09 04:11:36;;;;;;;13.30;6.28;;;17.00;90.20;;;;;;4989838;28;20198;-83
2021/07/09 04:14:02;;;;;;;23.13;6.80;;;17.00;90.10;;;;;;4991255;28;20205;-83
2021/07/09 04:16:28;;;;;;;36.30;6.35;;;17.00;90.00;;;;;;4990903;28;20571;-83
2021/07/09 04:18:53;;;;;;;23.27;5.78;;;17.00;89.90;;;;;;4990929;28;20602;-83
2021/07/09 04:21:19;;;;;;;24.20;6.13;;;17.00;89.90;;;;;;4990862;28;20186;-83
2021/07/09 04:23:45;;;;;;;18.58;6.63;;;17.00;90.00;;;;;;4990905;28;20180;-83
2021/07/09 04:26:10;;;;;;;14.40;6.53;;;17.00;90.00;;;;;;4990805;28;20310;-83
2021/07/09 04:28:36;;;;;;;11.88;6.00;;;17.00;90.00;;;;;;4989602;28;20273;-83
2021/07/09 04:31:02;;;;;;;15.88;5.78;;;17.00;89.90;;;;;;4990761;28;20247;-83
2021/07/09 04:33:27;;;;;;;18.02;6.32;;;17.10;89.80;;;;;;4992184;28;20592;-83
2021/07/09 04:35:53;;;;;;;21.27;6.57;;;17.10;89.70;;;;;;4992913;28;20649;-83
2021/07/09 04:38:19;;;;;;;15.07;6.57;;;17.10;89.60;;;;;;4994151;28;20518;-83
2021/07/09 04:40:45;;;;;;;26.45;6.78;;;17.10;89.70;;;;;;4994015;28;20186;-83
2021/07/09 04:43:11;;;;;;;15.77;6.47;;;17.10;89.90;;;;;;4994186;28;20248;-83
2021/07/09 04:45:38;;;;;;;23.92;7.10;;;17.20;90.10;;;;;;4994102;28;20170;-83
2021/07/09 04:48:04;;;;;;;13.45;6.75;;;17.20;90.20;;;;;;4994044;28;20215;-83
2021/07/09 04:50:30;;;;;;;13.10;7.55;;;17.30;90.10;;;;;;4994080;28;20648;-83
2021/07/09 04:52:57;;;;;;;13.25;7.60;;;17.20;90.10;;;;;;4994255;28;20283;-83
2021/07/09 04:55:22;;;;;;;22.48;7.45;;;17.20;90.10;;;;;;4994071;28;20170;-83
2021/07/09 04:57:48;;;;;;;21.52;7.75;;;17.30;90.10;;;;;;4992568;28;20202;-83
2021/07/09 05:00:14;;;;;;;13.77;7.68;;;17.30;90.10;;;;;;4992330;28;20736;-83
2021/07/09 05:02:40;;;;;;;17.30;8.00;;;17.30;90.00;;;;;;4992539;28;20216;-83
2021/07/09 05:05:12;;;;;;;16.35;8.02;;;17.30;90.00;;;;;;4992468;28;20182;-83
2021/07/09 05:07:38;;;;;;;17.42;7.45;;;17.30;90.00;;;;;;4992631;28;20642;-83
2021/07/09 05:10:04;;;;;;;18.80;7.95;;;17.40;90.00;;;;;;4992450;28;20186;-83
2021/07/09 05:12:30;;;;;;;19.73;8.27;;;17.40;90.10;;;;;;4993859;28;20276;-83
2021/07/09 05:14:56;;;;;;;17.38;7.07;;;17.50;90.10;;;;;;4992502;28;20178;-83
2021/07/09 05:17:22;;;;;;;18.33;8.98;;;17.50;90.10;;;;;;4993544;28;20204;-83
2021/07/09 05:19:47;;;;;;;17.35;7.60;;;17.50;90.00;;;;;;4993622;28;20178;-83
2021/07/09 05:22:13;;;;;;;14.38;7.28;;;17.50;89.80;;;;;;4993496;28;20251;-83
2021/07/09 05:24:39;;;;;;;10.63;7.55;;;17.60;89.80;;;;;;4992316;28;20635;-83
2021/07/09 05:27:07;;;;;;;15.05;6.88;;;17.70;89.90;;;;;;4993456;28;20170;-83
2021/07/09 05:29:33;;;;;;;20.50;7.80;;;17.70;89.50;;;;;;4992369;28;20676;-83
2021/07/09 05:31:58;;;;;;;14.75;7.43;;;17.70;89.70;;;;;;4992040;28;20202;-83
2021/07/09 05:34:24;;;;;;;10.32;7.47;;;17.80;89.70;;;;;;4993606;28;20521;-83
2021/07/09 05:36:50;;;;;;;10.93;8.00;;;17.80;90.00;;;;;;4993293;28;20197;-83
2021/07/09 05:39:16;;;;;;;21.50;8.18;;;17.80;90.10;;;;;;4993354;28;20171;-83
2021/07/09 05:41:43;;;;;;;26.98;8.40;;;17.90;90.00;;;;;;4992012;28;20198;-83
2021/07/09 05:44:11;;;;;;;18.38;7.85;;;17.90;89.70;;;;;;4991484;28;20174;-83
2021/07/09 05:46:37;;;;;;;16.52;8.68;;;17.90;89.70;;;;;;4991483;28;20178;-83
2021/07/09 05:49:02;;;;;;;13.52;7.20;;;17.90;89.70;;;;;;4993226;28;20170;-83
2021/07/09 05:51:28;;;;;;;24.58;8.18;;;18.00;89.50;;;;;;4991905;28;20210;-83
2021/07/09 05:53:54;;;;;;;17.25;8.07;;;18.00;89.50;;;;;;4993130;28;20171;-83
2021/07/09 05:56:20;;;;;;;14.80;8.10;;;18.10;89.40;;;;;;4992919;28;20198;-83
2021/07/09 05:58:45;;;;;;;12.95;6.82;;;18.10;89.40;;;;;;4991650;28;20703;-83
2021/07/09 06:01:11;;;;;;;12.02;7.55;;;18.10;88.90;;;;;;4992901;28;20276;-83
2021/07/09 06:03:37;;;;;;;18.98;7.15;;;18.10;88.80;;;;;;4991713;28;20638;-83
2021/07/09 06:06:02;;;;;;;17.35;7.22;;;18.20;89.00;;;;;;4993084;28;20178;-83
2021/07/09 06:08:29;;;;;;;17.85;7.35;;;18.20;89.20;;;;;;4992821;28;20270;-83
2021/07/09 06:10:56;;;;;;;16.67;8.00;;;18.30;89.20;;;;;;4991460;28;20201;-83
2021/07/09 06:13:21;;;;;;;13.38;8.05;;;18.30;89.20;;;;;;5007960;28;20182;-83
2021/07/09 06:15:47;;;;;;;18.13;8.52;;;18.40;89.30;;;;;;4992628;28;20178;-83
2021/07/09 06:18:13;;;;;;;17.42;8.88;;;18.40;89.20;;;;;;4991477;28;20190;-83
2021/07/09 06:20:38;;;;;;;18.95;9.40;;;18.50;89.40;;;;;;4991402;28;20229;-83
2021/07/09 06:23:04;;;;;;;17.20;9.80;;;18.50;89.50;;;;;;4992594;28;20185;-83
2021/07/09 06:25:30;;;;;;;22.70;11.73;;;18.60;89.50;;;;;;4992640;28;20173;-83
2021/07/09 06:27:56;;;;;;;13.75;9.65;;;18.70;89.60;;;;;;4992579;28;20174;-83
2021/07/09 06:30:21;;;;;;;17.67;10.55;;;18.70;89.60;;;;;;4992484;28;20539;-83
2021/07/09 06:32:47;;;;;;;15.57;11.07;;;18.70;89.60;;;;;;4991307;28;20251;-83
2021/07/09 06:35:13;;;;;;;12.13;10.90;;;18.70;89.80;;;;;;4991253;28;20343;-83
2021/07/09 06:37:39;;;;;;;14.27;11.43;;;18.80;90.00;;;;;;4991229;28;20206;-83
2021/07/09 06:40:07;;;;;;;13.48;11.82;;;18.90;89.90;;;;;;4992480;28;20173;-83
2021/07/09 06:42:33;;;;;;;17.58;12.70;;;18.90;89.90;;;;;;4992354;28;20178;-83
2021/07/09 06:44:58;;;;;;;26.20;12.52;;;18.90;89.70;;;;;;4992309;28;20173;-84
2021/07/09 06:47:24;;;;;;;17.52;12.48;;;19.10;89.80;;;;;;4991090;28;20186;-83
2021/07/09 06:49:50;;;;;;;16.00;12.25;;;19.00;89.60;;;;;;4991012;28;20212;-83
2021/07/09 06:52:16;;;;;;;22.10;12.52;;;19.10;89.50;;;;;;4991064;28;20280;-83
2021/07/09 06:54:42;;;;;;;14.77;12.30;;;19.10;89.30;;;;;;4990959;28;20182;-83
2021/07/09 06:57:07;;;;;;;15.90;12.68;;;19.20;89.40;;;;;;4991873;28;20599;-83
2021/07/09 06:59:33;;;;;;;13.65;12.23;;;19.20;88.90;;;;;;4990836;28;20265;-83
2021/07/09 07:01:59;;;;;;;17.70;12.32;;;19.30;88.80;;;;;;4992019;28;20237;-83
2021/07/09 07:04:25;;;;;;;16.02;12.93;;;19.30;88.00;;;;;;4991978;28;20167;-83
2021/07/09 07:06:52;;;;;;;13.13;11.75;;;19.40;88.50;;;;;;4991980;28;20230;-83
2021/07/09 07:09:18;;;;;;;11.98;10.73;;;19.50;87.90;;;;;;4990625;28;20186;-83
2021/07/09 07:11:44;;;;;;;13.48;10.30;;;19.50;87.10;;;;;;4990512;28;20687;-83
2021/07/09 07:14:10;;;;;;;10.93;9.82;;;19.50;86.80;;;;;;4992141;28;20185;-83
2021/07/09 07:16:35;;;;;;;13.32;10.13;;;19.50;86.60;;;;;;4990457;28;20581;-83
2021/07/09 07:19:02;;;;;;;10.43;9.43;;;19.60;86.10;;;;;;4991743;28;20663;-83
2021/07/09 07:21:27;;;;;;;10.02;9.02;;;19.60;86.10;;;;;;4991686;28;20247;-84
2021/07/09 07:23:53;;;;;;;8.63;7.30;;;19.60;85.90;;;;;;4991682;28;20588;-83
2021/07/09 07:26:18;;;;;;;8.25;6.78;;;19.60;85.60;;;;;;4991758;28;20178;-84
2021/07/09 07:28:44;;;;;;;8.55;7.05;;;19.50;84.90;;;;;;4990405;28;20201;-83
2021/07/09 07:31:10;;;;;;;9.57;7.78;;;19.60;85.20;;;;;;4990243;28;20213;-83
2021/07/09 07:33:38;;;;;;;7.70;7.00;;;19.60;85.70;;;;;;4991803;28;20652;-83
2021/07/09 07:36:03;;;;;;;7.40;6.70;;;19.60;85.40;;;;;;4991499;28;20666;-84
2021/07/09 07:38:29;;;;;;;8.85;6.30;;;19.70;85.40;;;;;;4990225;28;20185;-84
2021/07/09 07:40:55;;;;;;;7.47;6.80;;;19.70;85.10;;;;;;4990293;28;20293;-84
2021/07/09 07:43:21;;;;;;;8.45;6.80;;;19.70;85.20;;;;;;4991432;28;20638;-84
2021/07/09 07:45:47;;;;;;;8.65;6.93;;;19.70;85.10;;;;;;4990251;28;20601;-84
2021/07/09 07:48:12;;;;;;;8.45;6.82;;;19.80;85.00;;;;;;4991359;28;20166;-84
2021/07/09 07:50:38;;;;;;;9.45;6.78;;;19.90;84.90;;;;;;4990842;28;20298;-84
2021/07/09 07:53:04;;;;;;;7.68;6.70;;;19.80;84.80;;;;;;4991249;28;20524;-84
2021/07/09 07:55:29;;;;;;;11.25;7.65;;;19.90;85.10;;;;;;4989999;28;20185;-84
2021/07/09 07:57:55;;;;;;;8.25;7.45;;;20.00;85.10;;;;;;4991108;28;20202;-83
2021/07/09 08:00:21;;;;;;;10.70;7.03;;;20.00;84.30;;;;;;4991064;28;20182;-83
2021/07/09 08:02:47;;;;;;;10.90;7.43;;;20.00;84.60;;;;;;4990008;28;20170;-83
2021/07/09 08:05:13;;;;;;;6.50;5.90;;;20.10;84.60;;;;;;4991168;28;20170;-83
2021/07/09 08:07:40;;;;;;;9.50;6.20;;;20.20;84.80;;;;;;4990470;28;20264;-84
2021/07/09 08:10:07;;;;;;;9.75;7.00;;;20.20;83.60;;;;;;4989789;28;20186;-83
2021/07/09 08:12:33;;;;;;;8.57;5.95;;;20.20;83.40;;;;;;4989768;28;20213;-83
2021/07/09 08:14:58;;;;;;;7.95;6.13;;;20.30;82.80;;;;;;4989746;28;20551;-83
2021/07/09 08:17:26;;;;;;;9.48;7.20;;;20.40;82.80;;;;;;4990843;28;20301;-83
2021/07/09 08:19:52;;;;;;;8.63;6.63;;;20.50;82.20;;;;;;4989701;28;20182;-82
2021/07/09 08:22:18;;;;;;;7.50;5.78;;;20.40;82.10;;;;;;4989538;28;20247;-82
2021/07/09 08:24:43;;;;;;;8.38;5.28;;;20.50;82.40;;;;;;4990821;28;20166;-82
2021/07/09 08:27:09;;;;;;;7.10;5.18;;;20.50;81.80;;;;;;4989585;28;20223;-82
2021/07/09 08:29:35;;;;;;;6.13;5.55;;;20.60;80.80;;;;;;4990985;28;20181;-82
2021/07/09 08:32:01;;;;;;;6.40;5.68;;;20.60;81.00;;;;;;4990783;28;20190;-82
2021/07/09 08:34:26;;;;;;;6.85;5.38;;;20.60;81.40;;;;;;4989586;28;20273;-83
2021/07/09 08:36:52;;;;;;;6.93;5.65;;;20.70;82.10;;;;;;4990691;28;20573;-82
2021/07/09 08:39:18;;;;;;;6.70;6.00;;;20.80;81.40;;;;;;4989634;28;20208;-83
2021/07/09 08:41:45;;;;;;;7.10;5.68;;;20.80;81.40;;;;;;4990807;28;20197;-82
2021/07/09 08:44:13;;;;;;;8.90;5.07;;;20.90;80.50;;;;;;4991014;28;20174;-82
2021/07/09 08:46:41;;;;;;;11.23;5.85;;;21.00;81.20;;;;;;4991011;28;20718;-82
2021/07/09 08:49:22;;;;;;;6.57;5.47;;;21.00;80.30;;;;;;4989367;28;20190;-82
2021/07/09 08:51:48;;;;;;;6.97;5.50;;;21.10;80.40;;;;;;4990578;28;20213;-83
2021/07/09 08:54:16;;;;;;;7.47;5.20;;;21.00;80.30;;;;;;4990656;28;20174;-82
2021/07/09 08:56:43;;;;;;;7.30;5.53;;;21.20;80.30;;;;;;4990444;28;20669;-82
2021/07/09 08:59:09;;;;;;;8.63;6.18;;;21.10;79.40;;;;;;4989293;28;20247;-82
2021/07/09 09:01:57;;;;;;;8.13;5.13;;;21.10;80.20;;;;;;4990440;28;20693;-83
2021/07/09 09:04:44;;;;;;;5.85;4.97;;;21.10;79.80;;;;;;4989224;28;20216;-83
2021/07/09 09:07:12;;;;;;;6.10;5.50;;;21.20;80.10;;;;;;4989220;28;20177;-83
2021/07/09 09:09:39;;;;;;;7.32;5.13;;;21.20;79.60;;;;;;4989137;28;20186;-82
2021/07/09 09:12:16;;;;;;;12.52;4.78;;;21.20;79.90;;;;;;4990605;28;20190;-83
2021/07/09 09:14:51;;;;;;;5.43;4.25;;;21.10;78.60;;;;;;4990403;28;20166;-83
2021/07/09 09:17:41;;;;;;;5.95;4.05;;;21.10;79.80;;;;;;4989071;28;20201;-83
2021/07/09 09:20:15;;;;;;;6.28;4.68;;;21.20;79.20;;;;;;4992692;28;20162;-83
2021/07/09 09:22:50;;;;;;;4.47;4.03;;;21.20;78.10;;;;;;4992457;28;20249;-83
2021/07/09 09:25:18;;;;;;;10.57;4.85;;;21.30;78.80;;;;;;4992251;28;20174;-83
2021/07/09 09:27:55;;;;;;;8.35;5.55;;;21.50;77.90;;;;;;4992201;28;20172;-83
2021/07/09 09:30:21;;;;;;;5.90;5.38;;;21.50;77.90;;;;;;4993371;28;20247;-82
2021/07/09 09:32:49;;;;;;;6.22;5.60;;;21.50;77.60;;;;;;4992184;28;20178;-83
2021/07/09 09:35:25;;;;;;;13.27;6.82;;;21.60;78.60;;;;;;4993340;28;20186;-83
2021/07/09 09:37:54;;;;;;;5.90;5.30;;;21.70;78.40;;;;;;5008425;28;20204;-83
2021/07/09 09:40:21;;;;;;;7.82;5.82;;;21.80;78.60;;;;;;4993529;28;20583;-83
2021/07/09 09:42:46;;;;;;;5.20;4.68;;;21.90;78.40;;;;;;4993235;28;20223;-83
2021/07/09 09:45:12;;;;;;;9.55;4.75;;;22.00;77.20;;;;;;4993297;28;20171;-82
2021/07/09 09:47:38;;;;;;;8.95;4.72;;;22.20;77.80;;;;;;4991899;28;20174;-82
2021/07/09 09:50:09;;;;;;;7.43;6.18;;;22.30;76.90;;;;;;4993054;28;20657;-83
2021/07/09 09:52:41;;;;;;;7.00;4.90;;;22.30;75.70;;;;;;4991927;28;20170;-83
2021/07/09 09:55:30;;;;;;;5.25;4.43;;;22.40;76.60;;;;;;4993311;28;20650;-83
2021/07/09 09:58:18;;;;;;;4.85;4.30;;;22.40;75.30;;;;;;4992972;28;20209;-83
2021/07/09 10:00:49;;;;;;;7.03;4.38;;;22.70;75.30;;;;;;4992814;28;20685;-83
2021/07/09 10:03:17;;;;;;;13.15;4.70;;;22.90;74.10;;;;;;4991777;28;20228;-82
2021/07/09 10:05:46;;;;;;;8.50;4.60;;;23.00;72.90;;;;;;4993260;28;20272;-83
2021/07/09 10:08:14;;;;;;;5.28;4.78;;;22.80;72.30;;;;;;4992864;28;20668;-83
2021/07/09 10:10:42;;;;;;;9.27;5.18;;;22.80;72.30;;;;;;4992787;28;20564;-83
2021/07/09 10:13:09;;;;;;;12.35;4.38;;;22.80;72.90;;;;;;5007890;28;20739;-83
2021/07/09 10:15:35;;;;;;;6.40;4.45;;;22.90;72.30;;;;;;4992763;28;20543;-83
2021/07/09 10:18:01;;;;;;;5.18;4.18;;;22.90;71.80;;;;;;4992592;28;20197;-83
2021/07/09 10:20:28;;;;;;;6.68;3.95;;;22.90;72.30;;;;;;4991439;28;20190;-83
2021/07/09 10:22:57;;;;;;;7.72;4.15;;;22.90;72.40;;;;;;4992839;28;20166;-84
2021/07/09 10:25:23;;;;;;;5.88;4.55;;;23.00;71.80;;;;;;4992559;28;20162;-83
2021/07/09 10:27:50;;;;;;;5.38;3.67;;;22.90;71.50;;;;;;4992546;28;20662;-84
2021/07/09 10:30:16;;;;;;;8.38;3.80;;;23.00;72.10;;;;;;4991045;28;20546;-84
2021/07/09 10:32:48;;;;;;;4.68;3.95;;;23.10;71.70;;;;;;4992351;28;20196;-83
2021/07/09 10:35:33;;;;;;;6.25;4.22;;;23.20;71.00;;;;;;4992466;28;20153;-83
2021/07/09 10:38:12;;;;;;;4.95;4.00;;;23.10;71.30;;;;;;4992343;28;20190;-84
2021/07/09 10:40:38;;;;;;;4.68;3.90;;;23.00;71.00;;;;;;4992409;28;20689;-83
2021/07/09 10:43:04;;;;;;;5.85;4.32;;;23.00;72.00;;;;;;4991508;28;20182;-83
2021/07/09 10:45:31;;;;;;;9.10;4.15;;;23.00;71.30;;;;;;4992647;28;20531;-83
2021/07/09 10:48:03;;;;;;;6.22;3.92;;;23.10;69.90;;;;;;4991053;28;20182;-83
2021/07/09 10:50:50;;;;;;;4.28;3.35;;;22.90;70.80;;;;;;4992478;28;20194;-83
2021/07/09 10:53:17;;;;;;;4.05;3.30;;;23.20;70.80;;;;;;4992327;28;20192;-83
2021/07/09 10:56:07;;;;;;;7.07;3.40;;;23.30;69.90;;;;;;4992259;28;20177;-83
2021/07/09 10:58:44;;;;;;;6.60;3.20;;;23.20;69.50;;;;;;4992235;28;20161;-82
2021/07/09 11:01:16;;;;;;;6.25;2.97;;;23.30;70.40;;;;;;4990761;28;20241;-83
2021/07/09 11:03:49;;;;;;;4.18;3.20;;;23.40;69.60;;;;;;4992222;28;20154;-84
2021/07/09 11:06:19;;;;;;;4.65;3.83;;;23.40;69.50;;;;;;5007189;28;20169;-83
2021/07/09 11:08:53;;;;;;;5.55;3.80;;;23.10;69.50;;;;;;4990781;28;20205;-83
2021/07/09 11:11:33;;;;;;;6.32;3.85;;;22.90;71.10;;;;;;4990684;28;20212;-83
2021/07/09 11:14:11;;;;;;;6.03;4.18;;;22.70;71.10;;;;;;4990868;28;20251;-83
2021/07/09 11:16:45;;;;;;;4.15;3.75;;;22.60;71.70;;;;;;4990628;28;20251;-82
2021/07/09 11:19:31;;;;;;;6.80;4.20;;;22.50;71.90;;;;;;4990684;28;20245;-83
2021/07/09 11:22:01;;;;;;;5.05;4.55;;;22.40;72.20;;;;;;4990618;28;20202;-83
2021/07/09 11:24:30;;;;;;;6.68;4.30;;;22.40;72.00;;;;;;4992811;28;20233;-83
2021/07/09 11:26:58;;;;;;;9.63;4.60;;;22.50;74.20;;;;;;4990531;28;20184;-83
2021/07/09 11:29:32;;;;;;;7.13;4.32;;;22.50;74.80;;;;;;4991864;28;20227;-82
2021/07/09 11:32:03;;;;;;;8.18;4.50;;;22.50;73.50;;;;;;4992011;28;20561;-82
2021/07/09 11:34:31;;;;;;;9.65;4.95;;;22.50;72.90;;;;;;4991629;28;20228;-83
2021/07/09 11:37:19;;;;;;;8.07;4.20;;;22.40;73.60;;;;;;4990401;28;20202;-82
2021/07/09 11:39:47;;;;;;;6.78;5.70;;;22.40;74.50;;;;;;4991577;28;20241;-83
2021/07/09 11:42:14;;;;;;;5.65;3.72;;;22.50;73.70;;;;;;4990909;28;20221;-83
2021/07/09 11:44:49;;;;;;;6.55;3.22;;;22.40;72.20;;;;;;4991618;28;20253;-83
2021/07/09 11:47:16;;;;;;;8.77;2.53;;;21.90;71.10;;;;;;4993776;28;20181;-84
2021/07/09 11:49:49;;;;;;;7.57;2.78;;;21.60;67.40;;;;;;4992833;28;20314;-83
2021/07/09 11:52:21;;;;;;;4.68;3.00;;;21.40;69.30;;;;;;4990514;28;20212;-83
2021/07/09 11:54:48;;;;;;;7.53;3.78;;;21.30;71.50;;;;;;4990444;28;20181;-83
2021/07/09 11:57:19;;;;;;;7.75;4.85;;;21.40;72.80;;;;;;4991475;28;20194;-83
2021/07/09 11:59:47;;;;;;;12.00;7.40;;;21.50;74.30;;;;;;4991524;28;20170;-83
2021/07/09 12:02:22;;;;;;;10.40;7.93;;;21.50;77.10;;;;;;4991288;28;20202;-83
2021/07/09 12:04:52;;;;;;;11.18;8.80;;;21.50;78.00;;;;;;4990014;28;20177;-83
2021/07/09 12:07:23;;;;;;;14.45;7.30;;;21.40;78.30;;;;;;4990114;28;20239;-83
2021/07/09 12:09:52;;;;;;;7.43;6.28;;;21.30;78.40;;;;;;4991433;28;20182;-83
2021/07/09 12:12:19;;;;;;;17.55;5.82;;;21.20;78.60;;;;;;4990480;28;20193;-84
2021/07/09 12:14:52;;;;;;;13.68;7.38;;;21.30;78.80;;;;;;4991506;28;20170;-83
2021/07/09 12:17:18;;;;;;;12.18;9.27;;;21.30;80.20;;;;;;4990977;28;20281;-82
2021/07/09 12:19:58;;;;;;;13.43;10.68;;;21.20;81.10;;;;;;4991046;28;20201;-82
2021/07/09 12:22:26;;;;;;;14.00;10.65;;;21.20;81.90;;;;;;4991076;28;20249;-82
2021/07/09 12:24:53;;;;;;;12.43;10.07;;;21.20;82.30;;;;;;4989756;28;20178;-82
2021/07/09 12:27:19;;;;;;;13.85;11.38;;;21.10;82.70;;;;;;4991154;28;20279;-82
2021/07/09 12:29:46;;;;;;;13.60;11.45;;;21.00;83.00;;;;;;4990970;28;20656;-82
2021/07/09 12:32:12;;;;;;;13.38;12.02;;;21.10;82.90;;;;;;4989771;28;20201;-82
2021/07/09 12:34:37;;;;;;;16.15;10.65;;;21.20;83.10;;;;;;4989730;28;20695;-82
2021/07/09 12:37:04;;;;;;;15.60;11.02;;;21.30;82.60;;;;;;4990950;28;20198;-82
2021/07/09 12:39:30;;;;;;;13.30;9.93;;;21.40;82.70;;;;;;4990891;28;20227;-82
2021/07/09 12:41:55;;;;;;;15.18;10.43;;;21.50;82.50;;;;;;4990823;28;20194;-83